Time;durP1;ratioP1;P1;durP2;ratioP2;P2;SDS_P1;SDS_P2;PMS_P1;PMS_P2;Temp;Humidity;BMP_temperature;BMP_pressure;BME280_temperature;BME280_humidity;BME280_pressure;Samples;Min_cycle;Max_cycle;Signal;HPM_P1;HPM_P2
2023/03/22 00:00:26;;;;;;;112.93;8.38;;;;;;;;;;4986575;28;20029;-58
2023/03/22 00:02:51;;;;;;;145.20;9.60;;;;;;;;;;4986190;28;20092;-58
2023/03/22 00:05:17;;;;;;;120.82;9.02;;;;;;;;;;4987919;28;20101;-56
2023/03/22 00:07:42;;;;;;;129.57;7.97;;;;;;;;;;4986903;28;20041;-55
2023/03/22 00:10:07;;;;;;;118.00;8.45;;;;;;;;;;4986410;28;20136;-59
2023/03/22 00:12:33;;;;;;;103.38;7.90;;;;;;;;;;4988015;28;20030;-57
2023/03/22 00:14:59;;;;;;;138.40;8.23;;;;;;;;;;4986027;28;20037;-58
2023/03/22 00:17:24;;;;;;;110.40;7.40;;;;;;;;;;4985322;28;20399;-57
2023/03/22 00:19:53;;;;;;;118.55;7.40;;;;;;;;;;4987379;28;20407;-59
2023/03/22 00:22:18;;;;;;;102.65;7.45;;;;;;;;;;4986344;28;20315;-57
2023/03/22 00:24:43;;;;;;;107.88;9.00;;;;;;;;;;4987939;28;20447;-57
2023/03/22 00:27:09;;;;;;;144.88;9.85;;;;;;;;;;4985839;28;20274;-57
2023/03/22 00:29:34;;;;;;;124.32;9.00;;;;;;;;;;4989075;28;20113;-58
2023/03/22 00:31:59;;;;;;;105.95;7.85;;;;;;;;;;4986175;28;20501;-58
2023/03/22 00:34:25;;;;;;;121.73;9.40;;;;;;;;;;4988624;28;20026;-59
2023/03/22 00:36:51;;;;;;;100.95;8.05;;;;;;;;;;4986772;28;20829;-58
2023/03/22 00:39:16;;;;;;;106.65;8.82;;;;;;;;;;4986887;28;20125;-57
2023/03/22 00:41:41;;;;;;;136.25;9.32;;;;;;;;;;4986322;28;20042;-58
2023/03/22 00:44:07;;;;;;;125.38;9.38;;;;;;;;;;4987924;28;20018;-58
2023/03/22 00:46:32;;;;;;;98.40;8.37;;;;;;;;;;4986221;28;20046;-56
2023/03/22 00:48:57;;;;;;;118.10;8.63;;;;;;;;;;4989979;28;20270;-56
2023/03/22 00:51:23;;;;;;;120.83;8.73;;;;;;;;;;4990336;28;20258;-56
2023/03/22 00:53:49;;;;;;;108.05;8.70;;;;;;;;;;4992055;28;20257;-58
2023/03/22 00:56:15;;;;;;;89.13;8.50;;;;;;;;;;4991157;28;20041;-57
2023/03/22 00:58:41;;;;;;;113.63;8.85;;;;;;;;;;4993155;28;20034;-58
2023/03/22 01:01:06;;;;;;;135.57;9.55;;;;;;;;;;4991421;28;20034;-56
2023/03/22 01:03:32;;;;;;;104.70;8.15;;;;;;;;;;4992670;28;20622;-57
2023/03/22 01:05:57;;;;;;;103.78;8.07;;;;;;;;;;4992450;28;20054;-58
2023/03/22 01:08:22;;;;;;;116.22;9.20;;;;;;;;;;4992361;28;20022;-58
2023/03/22 01:10:48;;;;;;;83.85;7.45;;;;;;;;;;4990669;28;20725;-56
2023/03/22 01:13:13;;;;;;;118.43;8.55;;;;;;;;;;4990208;28;20038;-56
2023/03/22 01:15:40;;;;;;;118.72;8.68;;;;;;;;;;4989723;28;20049;-56
2023/03/22 01:18:06;;;;;;;110.25;7.28;;;;;;;;;;4990938;28;20029;-57
2023/03/22 01:20:31;;;;;;;147.57;9.68;;;;;;;;;;4989141;28;20068;-55
2023/03/22 01:22:57;;;;;;;108.95;8.05;;;;;;;;;;4991519;28;20033;-58
2023/03/22 01:25:22;;;;;;;92.72;8.10;;;;;;;;;;4990724;28;20091;-58
2023/03/22 01:27:47;;;;;;;118.00;8.77;;;;;;;;;;4991224;28;20401;-58
2023/03/22 01:30:13;;;;;;;115.22;8.65;;;;;;;;;;4992175;28;20257;-57
2023/03/22 01:32:38;;;;;;;88.18;6.93;;;;;;;;;;4989174;28;20716;-57
2023/03/22 01:35:04;;;;;;;114.00;8.38;;;;;;;;;;4989474;28;20057;-60
2023/03/22 01:37:29;;;;;;;118.45;8.20;;;;;;;;;;4990233;28;20184;-58
2023/03/22 01:39:54;;;;;;;123.38;8.75;;;;;;;;;;4991225;28;20032;-58
2023/03/22 01:42:21;;;;;;;114.10;8.23;;;;;;;;;;4991626;28;20033;-57
2023/03/22 01:45:05;;;;;;;109.63;7.65;;;;;;;;;;4988375;28;20129;-57
2023/03/22 01:47:32;;;;;;;121.72;8.15;;;;;;;;;;4990281;28;20049;-58
2023/03/22 01:49:57;;;;;;;111.25;8.35;;;;;;;;;;4989672;28;20450;-58
2023/03/22 01:52:23;;;;;;;105.15;8.02;;;;;;;;;;4990495;28;20031;-57
2023/03/22 01:54:50;;;;;;;99.43;7.17;;;;;;;;;;4990424;28;20108;-58
2023/03/22 01:57:15;;;;;;;110.47;7.93;;;;;;;;;;4987622;28;20274;-57
2023/03/22 01:59:41;;;;;;;117.15;6.55;;;;;;;;;;4987211;28;20025;-56
2023/03/22 02:02:09;;;;;;;115.57;7.72;;;;;;;;;;4989572;28;20069;-58
2023/03/22 02:04:37;;;;;;;101.63;7.57;;;;;;;;;;4990230;28;20029;-58
2023/03/22 02:07:08;;;;;;;105.35;7.13;;;;;;;;;;4989620;28;20041;-58
2023/03/22 02:09:41;;;;;;;127.25;7.60;;;;;;;;;;4988896;28;20570;-57
2023/03/22 02:12:06;;;;;;;;;;;;;;;;;;4989672;28;20026;-58
2023/03/22 02:14:37;;;;;;;132.95;8.38;;;;;;;;;;4988412;28;20078;-57
2023/03/22 02:17:05;;;;;;;123.85;7.85;;;;;;;;;;4984972;28;20441;-55
2023/03/22 02:19:33;;;;;;;125.05;8.18;;;;;;;;;;4990511;28;20026;-57
2023/03/22 02:22:01;;;;;;;144.98;8.95;;;;;;;;;;4992483;28;20416;-58
2023/03/22 02:24:33;;;;;;;101.00;7.13;;;;;;;;;;4988463;28;20022;-56
2023/03/22 02:27:05;;;;;;;139.30;8.27;;;;;;;;;;4995191;28;20096;-58
2023/03/22 02:30:02;;;;;;;127.43;8.48;;;;;;;;;;4987501;28;20105;-58
2023/03/22 02:32:46;;;;;;;118.93;8.25;;;;;;;;;;4980676;28;20582;-58
2023/03/22 02:35:24;;;;;;;134.63;8.38;;;;;;;;;;4988425;28;20076;-58
2023/03/22 02:37:49;;;;;;;117.53;7.80;;;;;;;;;;4989765;28;20080;-56
2023/03/22 02:40:14;;;;;;;138.82;8.48;;;;;;;;;;4988311;28;20018;-56
2023/03/22 02:42:43;;;;;;;113.93;7.40;;;;;;;;;;4987079;28;20036;-56
2023/03/22 02:45:17;;;;;;;102.93;7.15;;;;;;;;;;4988779;28;20186;-58
2023/03/22 02:48:02;;;;;;;95.38;6.95;;;;;;;;;;4990080;28;20022;-57
2023/03/22 02:50:27;;;;;;;111.40;7.97;;;;;;;;;;4988299;28;20156;-56
2023/03/22 02:52:56;;;;;;;125.87;8.10;;;;;;;;;;4986463;28;20076;-55
2023/03/22 02:55:43;;;;;;;121.07;7.82;;;;;;;;;;4987507;28;20366;-58
2023/03/22 02:58:24;;;;;;;115.03;6.85;;;;;;;;;;4988224;28;20072;-56
2023/03/22 03:00:52;;;;;;;125.97;8.50;;;;;;;;;;4988649;28;20041;-56
2023/03/22 03:03:18;;;;;;;107.15;7.80;;;;;;;;;;4988574;28;20032;-56
2023/03/22 03:05:53;;;;;;;124.28;8.38;;;;;;;;;;4988584;28;20105;-57
2023/03/22 03:08:19;;;;;;;104.57;7.68;;;;;;;;;;4987955;28;20120;-57
2023/03/22 03:10:45;;;;;;;121.22;8.25;;;;;;;;;;4988495;28;20034;-56
2023/03/22 03:13:14;;;;;;;142.77;8.82;;;;;;;;;;4986971;28;20036;-57
2023/03/22 03:15:42;;;;;;;126.60;8.00;;;;;;;;;;4989274;28;20030;-57
2023/03/22 03:18:13;;;;;;;129.68;8.68;;;;;;;;;;4989025;28;20643;-56
2023/03/22 03:20:42;;;;;;;103.30;7.43;;;;;;;;;;4987592;28;20081;-56
2023/03/22 03:23:23;;;;;;;112.35;7.05;;;;;;;;;;4990487;28;20506;-58
2023/03/22 03:25:56;;;;;;;100.13;7.47;;;;;;;;;;4990053;28;20045;-56
2023/03/22 03:28:37;;;;;;;120.93;8.18;;;;;;;;;;4990199;28;20137;-56
2023/03/22 03:31:08;;;;;;;122.18;7.63;;;;;;;;;;4987120;28;20046;-57
2023/03/22 03:33:36;;;;;;;130.40;8.63;;;;;;;;;;4986938;28;20069;-57
2023/03/22 03:36:04;;;;;;;121.35;7.78;;;;;;;;;;4987836;28;20532;-59
2023/03/22 03:38:32;;;;;;;122.28;8.23;;;;;;;;;;4986998;28;20113;-57
2023/03/22 03:41:02;;;;;;;114.53;7.78;;;;;;;;;;4986546;28;20046;-58
2023/03/22 03:43:27;;;;;;;97.22;7.78;;;;;;;;;;4987308;28;20030;-58
2023/03/22 03:45:53;;;;;;;106.95;7.85;;;;;;;;;;4986343;28;20442;-56
2023/03/22 03:48:20;;;;;;;118.22;8.77;;;;;;;;;;4987460;28;20472;-57
2023/03/22 03:50:46;;;;;;;122.72;8.65;;;;;;;;;;4985923;28;20064;-57
2023/03/22 03:53:11;;;;;;;126.63;8.73;;;;;;;;;;4988156;28;20809;-58
2023/03/22 03:55:36;;;;;;;112.50;8.20;;;;;;;;;;4987990;28;20224;-58
2023/03/22 03:58:02;;;;;;;145.55;9.35;;;;;;;;;;4987548;28;20272;-56
2023/03/22 04:00:27;;;;;;;110.40;7.53;;;;;;;;;;4988369;28;20480;-55
2023/03/22 04:02:52;;;;;;;108.60;7.65;;;;;;;;;;4987982;28;20033;-56
2023/03/22 04:05:17;;;;;;;115.35;8.18;;;;;;;;;;4986874;28;20022;-57
2023/03/22 04:07:43;;;;;;;111.87;7.80;;;;;;;;;;4986864;28;20344;-56
2023/03/22 04:10:08;;;;;;;113.55;8.30;;;;;;;;;;4986935;28;20277;-56
2023/03/22 04:12:34;;;;;;;133.02;8.27;;;;;;;;;;4986813;28;20022;-57
2023/03/22 04:14:59;;;;;;;124.95;8.05;;;;;;;;;;4986909;28;20021;-57
2023/03/22 04:17:28;;;;;;;97.45;7.32;;;;;;;;;;4984276;28;20377;-55
2023/03/22 04:19:55;;;;;;;111.18;7.80;;;;;;;;;;4987890;28;20494;-55
2023/03/22 04:22:21;;;;;;;112.18;7.75;;;;;;;;;;4984436;28;20129;-58
2023/03/22 04:24:49;;;;;;;133.02;9.10;;;;;;;;;;4986526;28;20106;-59
2023/03/22 04:27:18;;;;;;;114.82;7.85;;;;;;;;;;4985393;28;20157;-56
2023/03/22 04:29:49;;;;;;;119.07;8.20;;;;;;;;;;4988016;28;20025;-55
2023/03/22 04:32:17;;;;;;;117.78;7.85;;;;;;;;;;4987222;28;20305;-55
2023/03/22 04:34:42;;;;;;;119.97;8.02;;;;;;;;;;4986139;28;20034;-57
2023/03/22 04:37:08;;;;;;;125.95;8.25;;;;;;;;;;4985315;28;20031;-56
2023/03/22 04:39:33;;;;;;;94.80;7.60;;;;;;;;;;4985539;28;20438;-56
2023/03/22 04:41:58;;;;;;;129.82;8.43;;;;;;;;;;4985629;28;20061;-56
2023/03/22 04:44:23;;;;;;;132.90;8.93;;;;;;;;;;4987066;28;20080;-55
2023/03/22 04:46:49;;;;;;;113.38;8.30;;;;;;;;;;4984884;28;20328;-57
2023/03/22 04:49:14;;;;;;;96.97;7.35;;;;;;;;;;4985529;28;20052;-56
2023/03/22 04:51:39;;;;;;;147.98;9.15;;;;;;;;;;4984943;28;20037;-55
2023/03/22 04:54:05;;;;;;;139.77;8.80;;;;;;;;;;4987292;28;20018;-56
2023/03/22 04:56:30;;;;;;;151.05;9.00;;;;;;;;;;4984278;28;20070;-58
2023/03/22 04:58:55;;;;;;;85.50;7.03;;;;;;;;;;4988095;28;20451;-57
2023/03/22 05:01:20;;;;;;;132.55;8.82;;;;;;;;;;4985487;28;20046;-56
2023/03/22 05:03:46;;;;;;;105.75;7.55;;;;;;;;;;4986650;28;20381;-57
2023/03/22 05:06:12;;;;;;;113.75;8.05;;;;;;;;;;4987501;28;20049;-57
2023/03/22 05:08:37;;;;;;;134.98;8.85;;;;;;;;;;4986069;28;20034;-57
2023/03/22 05:11:07;;;;;;;138.90;9.13;;;;;;;;;;4984322;28;20038;-55
2023/03/22 05:13:32;;;;;;;129.07;8.43;;;;;;;;;;4986918;28;20274;-56
2023/03/22 05:15:58;;;;;;;134.90;8.50;;;;;;;;;;4985831;28;20038;-57
2023/03/22 05:18:25;;;;;;;113.70;8.23;;;;;;;;;;4987445;28;20034;-57
2023/03/22 05:20:52;;;;;;;99.40;7.38;;;;;;;;;;4986212;28;20161;-56
2023/03/22 05:23:18;;;;;;;114.90;7.80;;;;;;;;;;4987695;28;20567;-57
2023/03/22 05:25:46;;;;;;;116.00;8.00;;;;;;;;;;4988723;28;20100;-57
2023/03/22 05:28:13;;;;;;;140.32;8.80;;;;;;;;;;4986566;28;20061;-56
2023/03/22 05:30:38;;;;;;;129.75;8.13;;;;;;;;;;4987270;28;20046;-57
2023/03/22 05:33:04;;;;;;;133.68;8.65;;;;;;;;;;4985720;28;20392;-54
2023/03/22 05:35:29;;;;;;;119.67;8.30;;;;;;;;;;4989430;28;20029;-57
2023/03/22 05:37:55;;;;;;;106.53;7.72;;;;;;;;;;4989824;28;20265;-56
2023/03/22 05:40:21;;;;;;;121.53;8.07;;;;;;;;;;4989344;28;20088;-56
2023/03/22 05:42:46;;;;;;;106.13;7.70;;;;;;;;;;4988781;28;20042;-55
2023/03/22 05:45:11;;;;;;;125.63;8.80;;;;;;;;;;4989037;28;20871;-55
2023/03/22 05:47:38;;;;;;;131.05;8.70;;;;;;;;;;4990461;28;20018;-55
2023/03/22 05:50:04;;;;;;;137.23;8.75;;;;;;;;;;4997010;28;20017;-58
2023/03/22 05:52:29;;;;;;;113.97;8.35;;;;;;;;;;4990476;28;20029;-58
2023/03/22 05:54:55;;;;;;;143.60;9.02;;;;;;;;;;4989621;28;20026;-58
2023/03/22 05:57:21;;;;;;;108.35;8.20;;;;;;;;;;4988474;28;20035;-58
2023/03/22 05:59:46;;;;;;;128.10;8.32;;;;;;;;;;4990021;28;20022;-57
2023/03/22 06:02:11;;;;;;;117.60;8.25;;;;;;;;;;4988077;28;20592;-57
2023/03/22 06:04:36;;;;;;;110.90;8.10;;;;;;;;;;4990604;28;20022;-58
2023/03/22 06:07:01;;;;;;;155.80;9.93;;;;;;;;;;4990827;28;20278;-56
2023/03/22 06:09:27;;;;;;;121.18;8.35;;;;;;;;;;4989175;28;20050;-56
2023/03/22 06:11:52;;;;;;;107.45;7.78;;;;;;;;;;4989742;28;20038;-55
2023/03/22 06:14:17;;;;;;;124.35;8.30;;;;;;;;;;4989051;28;20022;-56
2023/03/22 06:16:42;;;;;;;96.17;7.50;;;;;;;;;;4989069;28;20579;-55
2023/03/22 06:19:08;;;;;;;101.80;7.25;;;;;;;;;;4989363;28;20772;-56
2023/03/22 06:21:33;;;;;;;115.20;7.75;;;;;;;;;;4988200;28;20049;-56
2023/03/22 06:23:58;;;;;;;104.03;7.33;;;;;;;;;;4989282;28;20037;-57
2023/03/22 06:26:23;;;;;;;146.23;8.87;;;;;;;;;;4987872;28;20265;-56
2023/03/22 06:28:49;;;;;;;117.72;7.50;;;;;;;;;;4988415;28;20344;-57
2023/03/22 06:31:14;;;;;;;125.10;7.90;;;;;;;;;;4989567;28;20788;-58
2023/03/22 06:33:39;;;;;;;126.70;8.80;;;;;;;;;;4988210;28;21072;-56
2023/03/22 06:36:05;;;;;;;78.05;6.82;;;;;;;;;;4988732;28;20077;-57
2023/03/22 06:38:30;;;;;;;97.20;6.88;;;;;;;;;;4988215;28;20030;-58
2023/03/22 06:40:55;;;;;;;115.90;8.07;;;;;;;;;;4986925;28;20401;-57
2023/03/22 06:43:20;;;;;;;114.65;8.13;;;;;;;;;;4987108;28;20041;-57
2023/03/22 06:45:46;;;;;;;95.57;7.27;;;;;;;;;;4986374;28;20128;-59
2023/03/22 06:48:11;;;;;;;103.32;6.93;;;;;;;;;;4988477;28;20430;-57
2023/03/22 06:50:37;;;;;;;119.33;7.87;;;;;;;;;;4988383;28;20154;-57
2023/03/22 06:53:03;;;;;;;122.65;7.65;;;;;;;;;;4987855;28;20374;-58
2023/03/22 06:55:32;;;;;;;90.35;6.38;;;;;;;;;;4989001;28;20039;-59
2023/03/22 06:57:58;;;;;;;105.05;7.53;;;;;;;;;;4990190;28;20073;-59
2023/03/22 07:00:23;;;;;;;102.15;7.45;;;;;;;;;;4989609;28;20055;-59
2023/03/22 07:02:49;;;;;;;100.57;7.70;;;;;;;;;;4987986;28;20018;-59
2023/03/22 07:05:14;;;;;;;128.03;8.57;;;;;;;;;;4987245;28;20026;-57
2023/03/22 07:07:39;;;;;;;116.75;8.90;;;;;;;;;;4986655;28;20261;-57
2023/03/22 07:10:06;;;;;;;139.68;10.27;;;;;;;;;;4986684;28;20796;-57
2023/03/22 07:12:32;;;;;;;115.72;9.38;;;;;;;;;;4986908;28;20030;-58
2023/03/22 07:14:57;;;;;;;98.05;8.45;;;;;;;;;;4987575;28;20028;-60
2023/03/22 07:17:22;;;;;;;90.53;8.27;;;;;;;;;;4985762;28;20483;-60
2023/03/22 07:19:47;;;;;;;119.33;9.30;;;;;;;;;;4986483;28;20250;-57
2023/03/22 07:22:13;;;;;;;90.53;7.82;;;;;;;;;;4985526;28;20680;-59
2023/03/22 07:24:38;;;;;;;98.70;8.30;;;;;;;;;;4988126;28;20026;-58
2023/03/22 07:27:03;;;;;;;92.67;8.67;;;;;;;;;;4987888;28;20037;-59
2023/03/22 07:29:28;;;;;;;92.77;8.03;;;;;;;;;;4988263;28;20033;-58
2023/03/22 07:31:54;;;;;;;91.25;7.97;;;;;;;;;;4987322;28;20045;-58
2023/03/22 07:34:19;;;;;;;73.70;7.68;;;;;;;;;;4988232;28;20032;-59
2023/03/22 07:36:44;;;;;;;106.70;9.05;;;;;;;;;;4985649;28;20034;-59
2023/03/22 07:39:10;;;;;;;114.17;9.60;;;;;;;;;;4986027;28;20088;-58
2023/03/22 07:41:35;;;;;;;115.10;9.30;;;;;;;;;;4984184;28;20046;-60
2023/03/22 07:44:00;;;;;;;86.67;8.00;;;;;;;;;;4987691;28;20524;-58
2023/03/22 07:46:25;;;;;;;100.33;8.37;;;;;;;;;;4987127;28;20528;-58
2023/03/22 07:48:50;;;;;;;104.10;8.57;;;;;;;;;;4985793;28;20060;-59
2023/03/22 07:51:16;;;;;;;92.67;8.17;;;;;;;;;;4986840;28;20076;-58
2023/03/22 07:53:41;;;;;;;82.57;7.55;;;;;;;;;;4988679;28;20088;-60
2023/03/22 07:56:07;;;;;;;94.43;8.03;;;;;;;;;;4986532;28;20042;-59
2023/03/22 07:58:32;;;;;;;99.15;7.93;;;;;;;;;;4986837;28;20287;-59
2023/03/22 08:01:02;;;;;;;64.23;6.40;;;;;;;;;;4986210;28;20073;-57
2023/03/22 08:03:27;;;;;;;62.15;5.53;;;;;;;;;;4984094;28;20107;-59
2023/03/22 08:05:52;;;;;;;125.83;9.23;;;;;;;;;;4988681;28;20136;-59
2023/03/22 08:08:17;;;;;;;66.23;6.27;;;;;;;;;;4989933;28;20034;-58
2023/03/22 08:10:47;;;;;;;64.83;6.13;;;;;;;;;;4990484;28;20275;-58
2023/03/22 08:13:12;;;;;;;81.72;6.25;;;;;;;;;;4991403;28;20028;-58
2023/03/22 08:15:38;;;;;;;67.20;6.03;;;;;;;;;;4988755;28;20034;-58
2023/03/22 08:18:03;;;;;;;70.78;6.40;;;;;;;;;;4990741;28;20273;-59
2023/03/22 08:20:28;;;;;;;61.23;5.97;;;;;;;;;;4989771;28;20034;-58
2023/03/22 08:22:53;;;;;;;85.03;6.72;;;;;;;;;;4991390;28;20023;-58
2023/03/22 08:25:19;;;;;;;99.57;7.23;;;;;;;;;;4988135;28;20026;-57
2023/03/22 08:27:44;;;;;;;63.63;5.68;;;;;;;;;;4988783;28;20270;-58
2023/03/22 08:30:10;;;;;;;72.72;5.80;;;;;;;;;;4987326;28;20026;-58
2023/03/22 08:32:36;;;;;;;84.63;6.07;;;;;;;;;;4989482;28;20094;-59
2023/03/22 08:35:03;;;;;;;91.90;6.95;;;;;;;;;;4985715;28;20037;-57
2023/03/22 08:37:28;;;;;;;90.72;6.20;;;;;;;;;;4987896;28;20104;-57
2023/03/22 08:39:53;;;;;;;86.28;5.95;;;;;;;;;;4987867;28;20030;-56
2023/03/22 08:42:19;;;;;;;64.13;5.20;;;;;;;;;;4987364;28;20034;-57
2023/03/22 08:44:45;;;;;;;94.60;6.35;;;;;;;;;;4987483;28;20856;-60
2023/03/22 08:47:11;;;;;;;74.38;5.35;;;;;;;;;;4987988;28;20073;-58
2023/03/22 08:49:36;;;;;;;64.30;4.67;;;;;;;;;;4988651;28;20455;-58
2023/03/22 08:52:01;;;;;;;97.18;6.88;;;;;;;;;;4985489;28;20096;-60
2023/03/22 08:54:31;;;;;;;63.97;4.90;;;;;;;;;;4987277;28;20550;-61
2023/03/22 08:56:57;;;;;;;82.53;6.22;;;;;;;;;;4987684;28;20268;-58
2023/03/22 08:59:23;;;;;;;65.75;4.97;;;;;;;;;;4987615;28;20038;-59
2023/03/22 09:01:48;;;;;;;78.33;5.17;;;;;;;;;;4987700;28;20060;-60
2023/03/22 09:04:13;;;;;;;133.00;8.00;;;;;;;;;;4986697;28;20276;-59
2023/03/22 09:06:41;;;;;;;67.17;4.70;;;;;;;;;;4986501;28;20038;-59
2023/03/22 09:09:07;;;;;;;72.38;5.13;;;;;;;;;;4989705;28;20510;-59
2023/03/22 09:11:32;;;;;;;95.70;6.17;;;;;;;;;;4991577;28;20038;-60
2023/03/22 09:13:57;;;;;;;69.03;5.13;;;;;;;;;;4992345;28;20272;-60
2023/03/22 09:16:22;;;;;;;75.00;5.30;;;;;;;;;;4992264;28;20242;-59
2023/03/22 09:18:47;;;;;;;76.03;5.27;;;;;;;;;;4992917;28;20264;-59
2023/03/22 09:21:14;;;;;;;66.57;4.97;;;;;;;;;;4992075;28;20043;-59
2023/03/22 09:23:41;;;;;;;102.55;6.53;;;;;;;;;;4991896;28;20026;-60
2023/03/22 09:26:07;;;;;;;71.57;5.18;;;;;;;;;;4992787;28;20523;-58
2023/03/22 09:28:33;;;;;;;66.80;5.22;;;;;;;;;;4994038;28;20025;-58
2023/03/22 09:30:59;;;;;;;89.72;5.70;;;;;;;;;;4991751;28;20084;-58
2023/03/22 09:33:24;;;;;;;68.53;4.90;;;;;;;;;;4993405;28;20032;-58
2023/03/22 09:35:51;;;;;;;86.07;5.82;;;;;;;;;;4990391;28;20038;-59
2023/03/22 09:38:17;;;;;;;77.72;5.35;;;;;;;;;;4993280;28;20077;-59
2023/03/22 09:40:49;;;;;;;77.27;5.37;;;;;;;;;;4991843;28;20129;-59
2023/03/22 09:43:15;;;;;;;113.65;6.63;;;;;;;;;;4988745;28;20827;-58
2023/03/22 09:45:42;;;;;;;76.20;4.93;;;;;;;;;;4991156;28;20048;-59
2023/03/22 09:48:15;;;;;;;88.85;6.00;;;;;;;;;;4989657;28;20030;-60
2023/03/22 09:50:45;;;;;;;65.80;4.88;;;;;;;;;;4991249;28;20047;-60
2023/03/22 09:53:12;;;;;;;101.15;6.45;;;;;;;;;;4992172;28;20017;-60
2023/03/22 09:55:40;;;;;;;60.85;4.80;;;;;;;;;;4989959;28;20452;-59
2023/03/22 09:58:05;;;;;;;52.53;4.15;;;;;;;;;;4991270;28;20057;-57
2023/03/22 10:00:42;;;;;;;90.20;5.47;;;;;;;;;;4992217;28;20144;-58
2023/03/22 10:03:26;;;;;;;106.70;6.43;;;;;;;;;;4991547;28;20029;-59
2023/03/22 10:06:06;;;;;;;99.45;5.97;;;;;;;;;;4991900;28;20662;-59
2023/03/22 10:08:38;;;;;;;136.25;7.65;;;;;;;;;;4990453;28;20033;-58
2023/03/22 10:11:08;;;;;;;66.05;4.68;;;;;;;;;;4992171;28;20031;-59
2023/03/22 10:13:34;;;;;;;88.75;5.72;;;;;;;;;;4986978;28;20022;-57
2023/03/22 10:16:01;;;;;;;75.88;5.07;;;;;;;;;;4991245;28;20611;-58
2023/03/22 10:18:31;;;;;;;89.72;5.97;;;;;;;;;;4992455;28;20105;-58
2023/03/22 10:20:59;;;;;;;124.78;7.82;;;;;;;;;;4986850;28;20070;-58
2023/03/22 10:23:50;;;;;;;52.60;4.25;;;;;;;;;;4990889;28;20045;-60
2023/03/22 10:26:20;;;;;;;66.15;5.05;;;;;;;;;;4991081;28;20041;-59
2023/03/22 10:28:48;;;;;;;67.22;5.03;;;;;;;;;;4991279;28;20022;-60
2023/03/22 10:31:16;;;;;;;88.03;5.50;;;;;;;;;;4990885;28;20038;-58
2023/03/22 10:33:53;;;;;;;80.38;5.40;;;;;;;;;;4988806;28;20021;-60
2023/03/22 10:36:21;;;;;;;79.07;5.65;;;;;;;;;;4990714;28;20042;-60
2023/03/22 10:38:48;;;;;;;80.90;5.38;;;;;;;;;;4991459;28;20168;-60
2023/03/22 10:41:15;;;;;;;77.95;5.05;;;;;;;;;;4988867;28;20097;-59
2023/03/22 10:43:41;;;;;;;75.32;5.07;;;;;;;;;;4988319;28;20029;-58
2023/03/22 10:46:12;;;;;;;77.68;5.35;;;;;;;;;;4989567;28;20030;-59
2023/03/22 10:48:42;;;;;;;88.45;5.97;;;;;;;;;;4989869;28;20032;-60
2023/03/22 10:51:10;;;;;;;74.95;5.15;;;;;;;;;;4988007;28;20117;-60
2023/03/22 10:53:44;;;;;;;231.13;11.45;;;;;;;;;;4984992;28;20069;-58
2023/03/22 10:56:14;;;;;;;117.47;7.07;;;;;;;;;;4986349;28;20507;-59
2023/03/22 10:58:39;;;;;;;123.00;7.45;;;;;;;;;;4985728;28;20506;-59
2023/03/22 11:01:09;;;;;;;113.38;6.97;;;;;;;;;;4986937;28;20042;-58
2023/03/22 11:03:37;;;;;;;123.95;7.05;;;;;;;;;;4988229;28;20149;-58
2023/03/22 11:06:02;;;;;;;107.57;6.50;;;;;;;;;;4987089;28;20042;-58
2023/03/22 11:08:27;;;;;;;80.03;5.23;;;;;;;;;;4988235;28;20028;-57
2023/03/22 11:10:54;;;;;;;69.97;4.78;;;;;;;;;;4987410;28;20030;-59
2023/03/22 11:13:21;;;;;;;97.40;5.85;;;;;;;;;;4987033;28;20030;-58
2023/03/22 11:16:05;;;;;;;109.75;6.25;;;;;;;;;;4984691;28;20038;-59
2023/03/22 11:18:32;;;;;;;82.13;5.53;;;;;;;;;;4985944;28;20029;-56
2023/03/22 11:21:04;;;;;;;76.80;4.88;;;;;;;;;;4986670;28;20512;-56
2023/03/22 11:23:33;;;;;;;79.43;5.13;;;;;;;;;;4986988;28;20131;-57
2023/03/22 11:26:04;;;;;;;90.40;5.38;;;;;;;;;;4986742;28;20029;-55
2023/03/22 11:28:40;;;;;;;99.68;5.90;;;;;;;;;;4987249;28;20599;-55
2023/03/22 11:31:10;;;;;;;95.88;6.10;;;;;;;;;;4987210;28;20114;-55
2023/03/22 11:33:36;;;;;;;97.78;5.88;;;;;;;;;;4987318;28;20038;-56
2023/03/22 11:36:04;;;;;;;88.50;5.50;;;;;;;;;;4990797;28;20034;-57
2023/03/22 11:38:35;;;;;;;88.13;5.45;;;;;;;;;;4987837;28;20019;-57
2023/03/22 11:41:01;;;;;;;93.85;5.63;;;;;;;;;;4985595;28;20041;-57
2023/03/22 11:43:31;;;;;;;90.25;5.47;;;;;;;;;;4988515;28;20030;-55
2023/03/22 11:45:57;;;;;;;142.88;7.88;;;;;;;;;;4984637;28;20045;-57
2023/03/22 11:48:26;;;;;;;102.85;5.95;;;;;;;;;;4984682;28;20030;-57
2023/03/22 11:50:53;;;;;;;111.78;6.38;;;;;;;;;;4994226;28;20034;-57
2023/03/22 11:53:21;;;;;;;139.00;7.65;;;;;;;;;;4986050;28;20026;-56
2023/03/22 11:55:47;;;;;;;127.75;7.03;;;;;;;;;;4983806;28;20038;-56
2023/03/22 11:58:25;;;;;;;106.60;6.10;;;;;;;;;;4986698;28;20034;-56
2023/03/22 12:00:52;;;;;;;136.50;7.32;;;;;;;;;;4987161;28;20039;-55
2023/03/22 12:03:19;;;;;;;121.03;6.45;;;;;;;;;;4986616;28;20033;-58
2023/03/22 12:05:46;;;;;;;56.03;3.58;;;;;;;;;;4986731;28;20955;-55
2023/03/22 12:08:30;;;;;;;87.18;5.05;;;;;;;;;;4987328;28;20026;-55
2023/03/22 12:11:00;;;;;;;123.05;6.57;;;;;;;;;;4984879;28;20057;-55
2023/03/22 12:13:34;;;;;;;141.88;7.30;;;;;;;;;;4985838;28;20018;-55
2023/03/22 12:16:01;;;;;;;121.30;6.55;;;;;;;;;;4986002;28;20034;-56
2023/03/22 12:18:29;;;;;;;131.32;7.00;;;;;;;;;;4987792;28;20093;-57
2023/03/22 12:20:59;;;;;;;142.02;7.30;;;;;;;;;;4983876;28;20582;-56
2023/03/22 12:23:26;;;;;;;120.72;6.53;;;;;;;;;;4985192;28;20026;-56
2023/03/22 12:25:51;;;;;;;106.57;5.93;;;;;;;;;;4984824;28;20522;-56
2023/03/22 12:28:19;;;;;;;64.55;4.07;;;;;;;;;;4986657;28;20025;-58
2023/03/22 12:30:50;;;;;;;71.95;4.47;;;;;;;;;;4985587;28;20470;-58
2023/03/22 12:33:18;;;;;;;77.80;4.70;;;;;;;;;;4988104;28;20034;-58
2023/03/22 12:35:44;;;;;;;86.05;5.10;;;;;;;;;;4985059;28;20030;-60
2023/03/22 12:38:32;;;;;;;130.88;6.75;;;;;;;;;;4987386;28;20135;-59
2023/03/22 12:41:00;;;;;;;134.85;7.05;;;;;;;;;;4984870;28;20042;-56
2023/03/22 12:43:44;;;;;;;92.25;5.20;;;;;;;;;;4986019;28;20036;-57
2023/03/22 12:46:15;;;;;;;119.90;6.28;;;;;;;;;;4986944;28;20045;-57
2023/03/22 12:49:10;;;;;;;118.23;6.27;;;;;;;;;;4987041;28;20037;-56
2023/03/22 12:51:35;;;;;;;148.48;7.70;;;;;;;;;;4967208;28;20141;-58
2023/03/22 12:54:01;;;;;;;146.00;7.47;;;;;;;;;;4983966;28;20061;-57
2023/03/22 12:56:37;;;;;;;92.32;5.03;;;;;;;;;;4986147;28;20262;-57
2023/03/22 12:59:04;;;;;;;116.32;6.13;;;;;;;;;;4986919;28;20046;-58
2023/03/22 13:01:42;;;;;;;112.75;6.20;;;;;;;;;;4985741;28;20126;-57
2023/03/22 13:04:26;;;;;;;126.20;6.60;;;;;;;;;;4987335;28;20033;-57
2023/03/22 13:06:55;;;;;;;85.85;4.95;;;;;;;;;;4987519;28;20045;-58
2023/03/22 13:09:26;;;;;;;85.28;4.95;;;;;;;;;;4986155;28;20137;-56
2023/03/22 13:12:10;;;;;;;91.03;5.25;;;;;;;;;;4986742;28;20042;-58
2023/03/22 13:14:48;;;;;;;93.70;5.32;;;;;;;;;;4985993;28;20042;-59
2023/03/22 13:17:14;;;;;;;178.70;8.55;;;;;;;;;;4983666;28;20037;-58
2023/03/22 13:19:50;;;;;;;101.45;5.53;;;;;;;;;;4984532;28;20096;-60
2023/03/22 13:22:29;;;;;;;135.40;6.93;;;;;;;;;;4986364;28;20046;-59
2023/03/22 13:25:07;;;;;;;130.98;6.85;;;;;;;;;;4985456;28;20022;-60
2023/03/22 13:27:34;;;;;;;84.72;4.78;;;;;;;;;;4986437;28;20621;-59
2023/03/22 13:30:03;;;;;;;82.78;4.65;;;;;;;;;;4986322;28;20113;-58
2023/03/22 13:32:29;;;;;;;102.03;5.35;;;;;;;;;;4984929;28;20030;-58
2023/03/22 13:34:55;;;;;;;105.22;5.65;;;;;;;;;;4985946;28;20053;-59
2023/03/22 13:37:36;;;;;;;128.30;6.85;;;;;;;;;;4984909;28;20673;-60
2023/03/22 13:40:10;;;;;;;102.03;6.00;;;;;;;;;;4984797;28;20018;-60
2023/03/22 13:42:39;;;;;;;73.43;4.20;;;;;;;;;;4985780;28;20433;-59
2023/03/22 13:45:26;;;;;;;89.18;5.00;;;;;;;;;;4986690;28;20054;-60
2023/03/22 13:48:01;;;;;;;143.90;7.20;;;;;;;;;;4983180;28;20033;-59
2023/03/22 13:50:30;;;;;;;115.32;5.95;;;;;;;;;;4985730;28;20073;-59
2023/03/22 13:53:01;;;;;;;152.15;7.60;;;;;;;;;;4985169;28;20023;-57
2023/03/22 13:55:35;;;;;;;125.23;6.70;;;;;;;;;;4983813;28;20033;-57
2023/03/22 13:58:01;;;;;;;127.20;6.53;;;;;;;;;;4989162;28;20375;-60
2023/03/22 14:00:33;;;;;;;113.30;6.03;;;;;;;;;;4987314;28;20141;-59
2023/03/22 14:03:00;;;;;;;116.03;6.20;;;;;;;;;;4989529;28;20054;-57
2023/03/22 14:05:31;;;;;;;137.27;7.00;;;;;;;;;;4989053;28;20439;-59
2023/03/22 14:07:59;;;;;;;134.32;6.57;;;;;;;;;;4990083;28;20017;-57
2023/03/22 14:10:43;;;;;;;129.40;6.68;;;;;;;;;;4986420;28;20042;-57
2023/03/22 14:13:27;;;;;;;90.22;5.28;;;;;;;;;;4990942;28;20118;-60
2023/03/22 14:15:55;;;;;;;122.15;6.53;;;;;;;;;;4986631;28;20490;-58
2023/03/22 14:18:27;;;;;;;59.25;3.80;;;;;;;;;;4988513;28;20041;-59
2023/03/22 14:20:56;;;;;;;86.07;4.82;;;;;;;;;;4989696;28;20157;-57
2023/03/22 14:23:25;;;;;;;97.78;5.00;;;;;;;;;;4991338;28;20022;-58
2023/03/22 14:25:52;;;;;;;92.65;5.30;;;;;;;;;;4988557;28;20034;-59